createdAt,value
2018-05-01T00:00:37.604Z,13.18
2018-05-01T00:03:40.146Z,13.40
2018-05-01T00:06:42.704Z,12.96
2018-05-01T00:09:45.201Z,12.90
2018-05-01T00:12:47.686Z,12.89
2018-05-01T00:15:50.163Z,13.18
2018-05-01T00:18:52.717Z,13.55
2018-05-01T00:21:55.212Z,13.64
2018-05-01T00:24:57.739Z,13.71
2018-05-01T00:28:00.267Z,13.34
2018-05-01T00:31:02.845Z,13.16
2018-05-01T00:34:05.394Z,13.20
2018-05-01T00:37:08.594Z,13.49
2018-05-01T00:40:11.092Z,13.58
2018-05-01T00:43:13.596Z,13.74
2018-05-01T00:46:16.109Z,13.83
2018-05-01T00:49:18.596Z,13.91
2018-05-01T00:52:32.740Z,13.85
2018-05-01T00:55:35.264Z,13.75
2018-05-01T00:58:37.779Z,13.58
2018-05-01T01:01:40.269Z,13.42
2018-05-01T01:04:42.787Z,13.51
2018-05-01T01:07:45.282Z,13.56
2018-05-01T01:10:47.772Z,13.60
2018-05-01T01:13:50.280Z,13.74
2018-05-01T01:16:52.756Z,13.84
2018-05-01T01:19:55.247Z,13.76
2018-05-01T01:22:57.712Z,13.87
2018-05-01T01:26:00.201Z,13.90
2018-05-01T01:29:02.671Z,13.94
2018-05-01T01:32:14.982Z,13.86
2018-05-01T01:35:16.947Z,14.01
2018-05-01T01:38:18.897Z,13.87
2018-05-01T01:41:20.874Z,13.96
2018-05-01T01:44:22.896Z,13.90
2018-05-01T01:47:24.867Z,13.90
2018-05-01T01:50:26.823Z,13.92
2018-05-01T01:53:28.793Z,13.85
2018-05-01T01:56:30.753Z,13.70
2018-05-01T01:59:33.121Z,13.78
2018-05-01T02:02:35.082Z,13.75
2018-05-01T02:05:37.023Z,13.78
2018-05-01T02:08:38.965Z,13.79
2018-05-01T02:11:40.991Z,13.90
2018-05-01T02:14:42.955Z,14.00
2018-05-01T02:17:44.912Z,13.97
2018-05-01T02:20:46.846Z,14.10
2018-05-01T02:23:48.776Z,14.07
2018-05-01T02:26:50.711Z,14.06
2018-05-01T02:29:52.746Z,14.14
2018-05-01T02:32:54.718Z,14.15
2018-05-01T02:35:56.672Z,14.07
2018-05-01T02:38:58.604Z,14.12
2018-05-01T02:42:00.572Z,14.12
2018-05-01T02:45:02.508Z,14.07
2018-05-01T02:48:04.485Z,14.07
2018-05-01T02:51:06.542Z,14.12
2018-05-01T02:54:08.532Z,14.15
2018-05-01T02:57:10.480Z,14.11
2018-05-01T03:00:12.454Z,14.14
2018-05-01T03:03:14.435Z,14.19
2018-05-01T03:06:16.423Z,14.21
2018-05-01T03:09:18.428Z,14.23
2018-05-01T03:12:20.384Z,14.26
2018-05-01T03:15:22.341Z,14.24
2018-05-01T03:18:24.307Z,14.24
2018-05-01T03:21:26.315Z,14.18
2018-05-01T03:24:28.259Z,14.17
2018-05-01T03:27:30.241Z,14.16
2018-05-01T03:30:32.190Z,14.17
2018-05-01T03:33:34.199Z,14.13
2018-05-01T03:36:36.154Z,14.16
2018-05-01T03:39:38.099Z,14.23
2018-05-01T03:42:40.075Z,14.11
2018-05-01T03:45:42.025Z,14.04
2018-05-01T03:48:43.990Z,14.11
2018-05-01T03:51:45.929Z,14.11
2018-05-01T03:54:47.896Z,14.11
2018-05-01T03:57:49.855Z,14.09
2018-05-01T04:00:51.866Z,14.05
2018-05-01T04:03:53.767Z,14.06
2018-05-01T04:06:55.743Z,14.09
2018-05-01T04:09:57.718Z,14.12
2018-05-01T04:12:59.692Z,14.15
2018-05-01T04:16:01.679Z,14.15
2018-05-01T04:19:03.654Z,14.12
2018-05-01T04:22:05.633Z,14.14
2018-05-01T04:25:07.590Z,14.19
2018-05-01T04:28:09.564Z,14.14
2018-05-01T04:31:11.526Z,14.15
2018-05-01T04:34:13.542Z,14.22
2018-05-01T04:37:15.545Z,14.18
2018-05-01T04:40:17.571Z,14.07
2018-05-01T04:43:20.066Z,14.17
2018-05-01T04:46:22.042Z,14.19
2018-05-01T04:49:24.057Z,14.13
2018-05-01T04:52:26.041Z,14.21
2018-05-01T04:55:28.086Z,14.21
2018-05-01T04:58:30.122Z,14.23
2018-05-01T05:01:32.086Z,14.22
2018-05-01T05:04:34.023Z,14.28
2018-05-01T05:07:35.972Z,14.25
2018-05-01T05:10:37.911Z,14.25
2018-05-01T05:13:39.853Z,14.21
2018-05-01T05:16:41.810Z,14.29
2018-05-01T05:19:43.793Z,14.31
2018-05-01T05:22:45.759Z,14.37
2018-05-01T05:25:47.741Z,14.42
2018-05-01T05:28:49.688Z,14.50
2018-05-01T05:31:51.648Z,14.49
2018-05-01T05:34:53.616Z,14.46
2018-05-01T05:37:55.567Z,14.48
2018-05-01T05:40:57.515Z,14.51
2018-05-01T05:43:59.489Z,14.51
2018-05-01T05:47:01.500Z,14.54
2018-05-01T05:50:03.595Z,14.55
2018-05-01T05:53:05.542Z,14.54
2018-05-01T05:56:07.562Z,14.49
2018-05-01T05:59:18.848Z,14.45
2018-05-01T06:02:20.834Z,14.49
2018-05-01T06:05:22.778Z,14.55
2018-05-01T06:08:24.755Z,14.47
2018-05-01T06:11:26.719Z,14.51
2018-05-01T06:14:28.728Z,14.46
2018-05-01T06:17:30.781Z,14.57
2018-05-01T06:20:32.718Z,14.58
2018-05-01T06:23:34.689Z,14.52
2018-05-01T06:26:36.667Z,14.50
2018-05-01T06:29:38.650Z,14.52
2018-05-01T06:32:41.624Z,14.55
2018-05-01T06:35:43.610Z,14.63
2018-05-01T06:38:45.536Z,14.54
2018-05-01T06:41:47.523Z,14.51
2018-05-01T06:44:49.552Z,14.52
2018-05-01T06:47:51.530Z,14.49
2018-05-01T06:50:54.831Z,14.45
2018-05-01T06:53:59.416Z,14.48
2018-05-01T06:57:01.383Z,14.50
2018-05-01T07:00:03.354Z,14.65
2018-05-01T07:03:05.384Z,14.71
2018-05-01T07:06:07.391Z,14.82
2018-05-01T07:09:09.330Z,14.91
2018-05-01T07:12:11.324Z,14.94
2018-05-01T07:15:13.286Z,14.85
2018-05-01T07:18:15.270Z,14.94
2018-05-01T07:21:17.277Z,15.04
2018-05-01T07:24:19.252Z,15.00
2018-05-01T07:27:21.283Z,14.97
2018-05-01T07:30:23.202Z,15.09
2018-05-01T07:33:25.185Z,15.05
2018-05-01T07:36:27.212Z,15.09
2018-05-01T07:39:29.202Z,15.20
2018-05-01T07:42:31.213Z,15.31
2018-05-01T07:45:33.259Z,15.32
2018-05-01T07:48:35.242Z,15.22
2018-05-01T07:51:37.207Z,15.32
2018-05-01T07:54:39.218Z,15.34
2018-05-01T07:57:41.228Z,15.36
2018-05-01T08:00:43.286Z,15.32
2018-05-01T08:03:45.451Z,15.28
2018-05-01T08:06:47.451Z,15.34
2018-05-01T08:09:49.417Z,15.38
2018-05-01T08:12:51.427Z,15.26
2018-05-01T08:15:53.397Z,15.24
2018-05-01T08:18:55.413Z,15.15
2018-05-01T08:21:57.411Z,14.82
2018-05-01T08:24:59.412Z,14.84
2018-05-01T08:28:01.454Z,14.73
2018-05-01T08:31:03.453Z,14.68
2018-05-01T08:34:05.460Z,14.78
2018-05-01T08:37:07.476Z,14.80
2018-05-01T08:40:09.547Z,14.76
2018-05-01T08:43:11.641Z,14.89
2018-05-01T08:46:13.624Z,14.83
2018-05-01T08:49:15.661Z,14.84
2018-05-01T08:52:17.631Z,14.75
2018-05-01T08:55:19.655Z,14.92
2018-05-01T08:58:21.688Z,15.00
2018-05-01T09:01:23.699Z,15.04
2018-05-01T09:04:25.718Z,15.22
2018-05-01T09:07:27.765Z,15.33
2018-05-01T09:10:29.771Z,15.35
2018-05-01T09:13:31.777Z,15.22
2018-05-01T09:16:33.835Z,15.54
2018-05-01T09:19:35.878Z,15.35
2018-05-01T09:22:37.894Z,15.33
2018-05-01T09:25:40.653Z,15.11
2018-05-01T09:28:42.689Z,15.00
2018-05-01T09:31:44.664Z,15.26
2018-05-01T09:34:46.829Z,15.33
2018-05-01T09:37:48.862Z,15.55
2018-05-01T09:40:50.885Z,15.64
2018-05-01T09:43:52.938Z,15.64
2018-05-01T09:46:54.954Z,15.45
2018-05-01T09:49:57.025Z,15.31
2018-05-01T09:52:59.642Z,15.31
2018-05-01T09:56:02.218Z,15.43
2018-05-01T09:59:04.796Z,15.78
2018-05-01T10:02:07.345Z,15.87
2018-05-01T10:05:09.959Z,16.19
2018-05-01T10:08:12.475Z,16.34
2018-05-01T10:11:15.042Z,16.31
2018-05-01T10:14:17.625Z,16.48
2018-05-01T10:17:20.266Z,16.52
2018-05-01T10:20:22.849Z,16.61
2018-05-01T10:23:25.398Z,16.73
2018-05-01T10:26:28.581Z,17.13
2018-05-01T10:29:31.144Z,17.09
2018-05-01T10:32:33.701Z,17.17
2018-05-01T10:35:36.977Z,17.27
2018-05-01T10:38:39.709Z,17.16
2018-05-01T10:41:42.425Z,17.23
2018-05-01T10:44:44.972Z,17.21
2018-05-01T10:47:48.032Z,17.25
2018-05-01T10:50:50.634Z,17.28
2018-05-01T10:53:53.378Z,17.32
2018-05-01T10:56:56.024Z,17.47
2018-05-01T10:59:58.617Z,17.65
2018-05-01T11:03:01.160Z,17.80
2018-05-01T11:06:04.565Z,17.64
2018-05-01T11:09:07.144Z,17.59
2018-05-01T11:12:12.033Z,17.68
2018-05-01T11:15:14.684Z,17.88
2018-05-01T11:18:17.297Z,18.13
2018-05-01T11:21:20.001Z,18.06
2018-05-01T11:24:22.533Z,18.22
2018-05-01T11:27:25.088Z,18.43
2018-05-01T11:30:27.733Z,18.30
2018-05-01T11:33:30.401Z,18.40
2018-05-01T11:36:32.914Z,18.18
2018-05-01T11:39:35.547Z,18.41
2018-05-01T11:42:38.162Z,18.57
2018-05-01T11:45:40.729Z,18.72
2018-05-01T11:48:43.296Z,18.89
2018-05-01T11:51:45.808Z,19.00
2018-05-01T11:54:48.389Z,18.85
2018-05-01T11:57:50.935Z,18.83
2018-05-01T12:00:53.530Z,18.96
2018-05-01T12:03:56.084Z,18.84
2018-05-01T12:06:58.677Z,18.88
2018-05-01T12:10:01.232Z,19.22
2018-05-01T12:13:03.764Z,19.07
2018-05-01T12:16:06.385Z,19.40
2018-05-01T12:19:08.949Z,18.59
2018-05-01T12:22:11.501Z,18.92
2018-05-01T12:25:14.055Z,18.91
2018-05-01T12:28:16.563Z,18.75
2018-05-01T12:31:19.231Z,19.15
2018-05-01T12:34:21.824Z,19.29
2018-05-01T12:37:24.447Z,19.34
2018-05-01T12:40:26.999Z,18.86
2018-05-01T12:43:29.546Z,18.80
2018-05-01T12:46:32.129Z,18.71
2018-05-01T12:49:34.695Z,19.05
2018-05-01T12:52:37.239Z,19.21
2018-05-01T12:55:39.800Z,19.02
2018-05-01T12:58:42.368Z,19.20
2018-05-01T13:01:44.927Z,19.38
2018-05-01T13:04:47.476Z,19.35
2018-05-01T13:07:50.039Z,19.01
2018-05-01T13:10:52.709Z,18.94
2018-05-01T13:13:55.372Z,19.13
2018-05-01T13:16:57.948Z,19.12
2018-05-01T13:20:00.571Z,18.90
2018-05-01T13:23:03.108Z,18.88
2018-05-01T13:26:05.754Z,18.74
2018-05-01T13:29:08.284Z,18.61
2018-05-01T13:32:10.917Z,18.56
2018-05-01T13:35:13.536Z,18.58
2018-05-01T13:38:16.117Z,18.45
2018-05-01T13:41:18.674Z,18.51
2018-05-01T13:44:21.190Z,18.67
2018-05-01T13:47:23.816Z,18.78
2018-05-01T13:50:26.509Z,18.67
2018-05-01T13:53:29.081Z,18.44
2018-05-01T13:56:31.627Z,18.52
2018-05-01T13:59:34.273Z,18.76
2018-05-01T14:02:36.822Z,18.51
2018-05-01T14:05:39.369Z,18.61
2018-05-01T14:08:41.965Z,18.56
2018-05-01T14:11:44.480Z,18.81
2018-05-01T14:14:47.076Z,18.90
2018-05-01T14:17:49.665Z,18.31
2018-05-01T14:20:52.413Z,18.58
2018-05-01T14:23:54.920Z,18.22
2018-05-01T14:26:57.488Z,18.55
2018-05-01T14:30:00.687Z,18.89
2018-05-01T14:33:03.243Z,18.94
2018-05-01T14:36:05.747Z,18.75
2018-05-01T14:39:08.317Z,18.48
2018-05-01T14:42:10.967Z,18.29
2018-05-01T14:45:14.349Z,18.26
2018-05-01T14:48:16.939Z,18.17
2018-05-01T14:51:20.201Z,17.86
2018-05-01T14:54:22.830Z,17.66
2018-05-01T14:57:25.487Z,17.99
2018-05-01T15:00:28.017Z,17.92
2018-05-01T15:03:31.336Z,17.94
2018-05-01T15:06:33.991Z,18.00
2018-05-01T15:09:36.549Z,18.17
2018-05-01T15:12:39.131Z,17.88
2018-05-01T15:15:41.768Z,18.01
2018-05-01T15:18:44.812Z,17.87
2018-05-01T15:21:47.435Z,17.69
2018-05-01T15:24:50.392Z,17.83
2018-05-01T15:27:53.621Z,18.13
2018-05-01T15:30:56.256Z,17.67
2018-05-01T15:33:58.957Z,17.34
2018-05-01T15:37:01.587Z,17.36
2018-05-01T15:40:04.221Z,17.40
2018-05-01T15:43:13.826Z,17.47
2018-05-01T15:46:19.454Z,17.27
2018-05-01T15:49:32.639Z,16.82
2018-05-01T15:52:36.712Z,16.60
2018-05-01T15:55:40.468Z,16.82
2018-05-01T15:58:49.803Z,16.90
2018-05-01T16:05:15.333Z,17.17
2018-05-01T16:08:28.499Z,17.21
2018-05-01T16:11:37.421Z,17.02
2018-05-01T16:18:31.460Z,17.09
2018-05-01T16:30:05.810Z,16.65
2018-05-01T16:33:08.734Z,16.56
2018-05-01T16:36:11.504Z,16.64
2018-05-01T16:39:16.146Z,16.47
2018-05-01T16:42:18.750Z,16.40
2018-05-01T16:45:21.369Z,16.38
2018-05-01T16:48:24.316Z,16.40
2018-05-01T16:51:26.906Z,16.40
2018-05-01T16:54:29.528Z,16.32
2018-05-01T16:57:32.904Z,16.43
2018-05-01T17:00:35.708Z,16.33
2018-05-01T17:03:38.328Z,16.37
2018-05-01T17:06:40.895Z,16.33
2018-05-01T17:09:43.761Z,16.18
2018-05-01T17:12:46.601Z,16.19
2018-05-01T17:15:49.550Z,16.11
2018-05-01T17:18:52.419Z,16.02
2018-05-01T17:21:55.179Z,16.04
2018-05-01T17:24:57.959Z,16.08
2018-05-01T17:28:00.653Z,15.99
2018-05-01T17:31:03.301Z,16.04
2018-05-01T17:34:05.961Z,15.88
2018-05-01T17:37:08.941Z,16.04
2018-05-01T17:40:11.710Z,15.94
2018-05-01T17:43:14.357Z,15.90
2018-05-01T17:46:17.032Z,15.91
2018-05-01T17:49:20.980Z,15.89
2018-05-01T17:52:23.676Z,15.82
2018-05-01T17:55:28.137Z,15.81
2018-05-01T17:58:30.990Z,15.68
2018-05-01T18:01:33.917Z,15.78
2018-05-01T18:04:37.756Z,15.63
2018-05-01T18:07:40.558Z,15.63
2018-05-01T18:10:43.436Z,15.58
2018-05-01T18:13:47.123Z,15.49
2018-05-01T18:16:49.845Z,15.51
2018-05-01T18:19:52.540Z,15.41
2018-05-01T18:22:55.302Z,15.49
2018-05-01T18:25:57.985Z,15.45
2018-05-01T18:29:03.254Z,15.43
2018-05-01T18:32:06.420Z,15.35
2018-05-01T18:35:15.666Z,15.30
2018-05-01T18:38:18.734Z,15.23
2018-05-01T18:41:23.029Z,15.18
2018-05-01T18:44:26.485Z,15.20
2018-05-01T18:47:29.436Z,15.02
2018-05-01T18:50:40.084Z,15.09
2018-05-01T18:53:35.821Z,14.90
2018-05-01T18:56:38.665Z,14.99
2018-05-01T18:59:41.387Z,14.74
2018-05-01T19:02:44.212Z,14.86
2018-05-01T19:05:46.906Z,14.90
2018-05-01T19:08:49.856Z,14.82
2018-05-01T19:11:53.726Z,14.68
2018-05-01T19:15:13.708Z,14.66
2018-05-01T19:18:17.666Z,14.67
2018-05-01T19:21:20.482Z,14.62
2018-05-01T19:24:23.711Z,14.60
2018-05-01T19:27:26.577Z,14.57
2018-05-01T19:30:29.725Z,14.54
2018-05-01T19:33:33.437Z,14.36
2018-05-01T19:36:36.936Z,14.32
2018-05-01T19:39:41.185Z,14.37
2018-05-01T19:42:45.048Z,14.23
2018-05-01T19:45:48.844Z,14.16
2018-05-01T19:48:51.548Z,14.15
2018-05-01T19:51:54.326Z,14.07
2018-05-01T19:54:56.972Z,14.09
2018-05-01T19:57:59.816Z,14.03
2018-05-01T20:01:02.607Z,14.01
2018-05-01T20:04:05.265Z,13.94
2018-05-01T20:07:08.400Z,13.89
2018-05-01T20:10:11.384Z,13.90
2018-05-01T20:13:14.024Z,13.84
2018-05-01T20:16:16.841Z,13.70
2018-05-01T20:19:20.189Z,13.61
2018-05-01T20:22:22.851Z,13.69
2018-05-01T20:25:25.553Z,13.76
2018-05-01T20:28:32.588Z,13.43
2018-05-01T20:31:35.250Z,13.20
2018-05-01T20:34:37.872Z,13.09
2018-05-01T20:37:40.977Z,12.98
2018-05-01T20:40:43.663Z,13.06
2018-05-01T20:43:46.248Z,12.88
2018-05-01T20:46:49.062Z,12.99
2018-05-01T20:49:51.746Z,13.13
2018-05-01T20:52:54.566Z,13.06
2018-05-01T20:55:58.128Z,13.07
2018-05-01T20:59:01.906Z,12.98
2018-05-01T21:02:04.509Z,12.99
2018-05-01T21:05:07.107Z,12.69
2018-05-01T21:08:09.814Z,12.82
2018-05-01T21:11:12.509Z,13.00
2018-05-01T21:14:15.310Z,12.77
2018-05-01T21:17:17.896Z,12.81
2018-05-01T21:20:20.495Z,12.86
2018-05-01T21:23:24.038Z,12.85
2018-05-01T21:26:26.664Z,12.58
2018-05-01T21:29:31.172Z,12.52
2018-05-01T21:32:33.760Z,12.49
2018-05-01T21:35:36.460Z,12.27
2018-05-01T21:38:39.014Z,12.15
2018-05-01T21:41:41.753Z,12.09
2018-05-01T21:44:44.352Z,12.06
2018-05-01T21:47:46.911Z,11.70
2018-05-01T21:50:49.556Z,11.73
2018-05-01T21:53:52.114Z,11.90
2018-05-01T21:56:54.773Z,11.65
2018-05-01T21:59:58.101Z,11.60
2018-05-01T22:03:00.664Z,11.98
2018-05-01T22:06:03.219Z,11.90
2018-05-01T22:09:07.032Z,12.03
2018-05-01T22:12:09.581Z,11.88
2018-05-01T22:15:12.097Z,11.73
2018-05-01T22:18:14.737Z,11.65
2018-05-01T22:21:17.441Z,11.51
2018-05-01T22:24:20.031Z,11.44
2018-05-01T22:27:22.761Z,11.49
2018-05-01T22:30:25.309Z,11.50
2018-05-01T22:33:28.677Z,11.53
2018-05-01T22:36:31.348Z,11.22
2018-05-01T22:39:33.944Z,11.27
2018-05-01T22:42:36.636Z,11.21
2018-05-01T22:45:39.261Z,11.07
2018-05-01T22:48:41.971Z,11.00
2018-05-01T22:51:44.787Z,10.97
2018-05-01T22:54:48.750Z,11.13
2018-05-01T22:57:51.520Z,11.08
2018-05-01T23:00:54.165Z,10.86
2018-05-01T23:03:57.640Z,10.94
2018-05-01T23:07:00.303Z,10.74
2018-05-01T23:10:02.827Z,10.64
2018-05-01T23:13:05.487Z,10.69
2018-05-01T23:16:08.087Z,10.60
2018-05-01T23:19:10.685Z,10.72
2018-05-01T23:22:14.001Z,10.72
2018-05-01T23:25:16.545Z,10.74
2018-05-01T23:28:19.067Z,10.63
2018-05-01T23:31:21.575Z,10.60
2018-05-01T23:34:24.095Z,10.63
2018-05-01T23:37:26.616Z,10.64
2018-05-01T23:40:29.147Z,10.56
2018-05-01T23:43:31.674Z,10.52
2018-05-01T23:46:34.224Z,10.45
2018-05-01T23:49:36.782Z,10.34
2018-05-01T23:52:39.295Z,10.36
2018-05-01T23:55:41.815Z,10.20
2018-05-01T23:58:44.343Z,10.20
